KJST/JST METAR and TAF weather

Enter ICAO airport designator
Station Type Date Time Source
KJST METAR 2021/05/14 12:54 UTC NOAA

KJST 141254Z AUTO VRB03KT 10SM CLR 13/M01 A3031 RMK AO2 SLP265 T01281006


Station Type Date Time Source
KJST Decoded METAR 2021/05/14 12:54 UTC NOAA

JOHNSTOWN-CAMBRIA CO AIRPORT , PA, United States (KJST) 40-19N 078-50W 694M
May 14, 2021 - 08:54 AM EDT / 2021.05.14 1254 UTC
Wind: Variable at 3 MPH (3 KT):0
Visibility: 10 mile(s):0
Sky conditions: clear
Temperature: 55.0 F (12.8 C)
Dew Point: 30.9 F (-0.6 C)
Relative Humidity: 39%
Pressure (altimeter): 30.31 in. Hg (1026 hPa)
ob: KJST 141254Z AUTO VRB03KT 10SM CLR 13/M01 A3031 RMK AO2 SLP265 T01281006
cycle: 13

Station Type Date Time Source
KJST TAF 2021/05/14 12:33 UTC NOAA

TAF KJST 141130Z 1412/1512 33005KT P6SM SKC
FM141400 31005KT P6SM BKN070
FM150000 00000KT P6SM SKC

Example: see airport list